createdAt,value
2018-09-21T00:01:27.934Z,97585.69
2018-09-21T00:04:07.073Z,97581.70
2018-09-21T00:06:36.763Z,97582.12
2018-09-21T00:09:10.536Z,97581.40
2018-09-21T00:11:40.440Z,97580.88
2018-09-21T00:14:11.644Z,97579.59
2018-09-21T00:16:40.848Z,97578.87
2018-09-21T00:19:10.148Z,97569.94
2018-09-21T00:21:39.479Z,97572.98
2018-09-21T00:24:08.707Z,97567.00
2018-09-21T00:26:37.926Z,97570.50
2018-09-21T00:29:07.364Z,97574.34
2018-09-21T00:31:36.612Z,97547.59
2018-09-21T00:34:05.878Z,97577.52
2018-09-21T00:36:35.233Z,97572.05
2018-09-21T00:39:05.548Z,97576.18
2018-09-21T00:41:34.846Z,97579.02
2018-09-21T00:44:05.482Z,97577.87
2018-09-21T00:46:34.800Z,97575.56
2018-09-21T00:49:03.992Z,97581.09
2018-09-21T00:51:33.179Z,97572.66
2018-09-21T00:54:02.554Z,97573.50
2018-09-21T00:56:32.021Z,97575.23
2018-09-21T00:59:01.324Z,97559.50
2018-09-21T01:01:31.655Z,97561.21
2018-09-21T01:06:42.251Z,97564.02
2018-09-21T01:09:13.396Z,97565.16
2018-09-21T01:11:42.777Z,97555.30
2018-09-21T01:14:12.262Z,97551.98
2018-09-21T01:16:41.535Z,97556.44
2018-09-21T01:19:11.068Z,97552.20
2018-09-21T01:21:40.655Z,97551.72
2018-09-21T01:24:09.940Z,97552.78
2018-09-21T01:26:39.100Z,97552.41
2018-09-21T01:29:08.533Z,97560.00
2018-09-21T01:31:37.826Z,97549.05
2018-09-21T01:34:07.030Z,97544.94
2018-09-21T01:36:41.397Z,97539.47
2018-09-21T01:39:11.558Z,97540.77
2018-09-21T01:41:40.764Z,97540.56
2018-09-21T01:44:10.690Z,97544.17
2018-09-21T01:46:40.310Z,97531.77
2018-09-21T01:49:09.492Z,97532.19
2018-09-21T01:51:38.837Z,97526.06
2018-09-21T01:54:08.136Z,97526.66
2018-09-21T01:56:37.896Z,97535.37
2018-09-21T01:59:07.152Z,97530.23
2018-09-21T02:01:36.407Z,97534.61
2018-09-21T02:04:05.777Z,97537.02
2018-09-21T02:06:35.008Z,97532.34
2018-09-21T02:09:05.449Z,97539.94
2018-09-21T02:11:34.729Z,97533.64
2018-09-21T02:14:03.959Z,97531.67
2018-09-21T02:16:33.227Z,97536.76
2018-09-21T02:19:02.737Z,97538.06
2018-09-21T02:21:33.016Z,97535.98
2018-09-21T02:24:03.269Z,97535.62
2018-09-21T02:26:33.145Z,97524.86
2018-09-21T02:29:02.831Z,97531.80
2018-09-21T02:31:32.310Z,97531.88
2018-09-21T02:34:01.644Z,97534.92
2018-09-21T02:36:30.917Z,97531.45
2018-09-21T02:39:00.293Z,97531.82
2018-09-21T02:41:29.724Z,97532.89
2018-09-21T02:44:02.394Z,97531.30
2018-09-21T02:46:32.650Z,97543.79
2018-09-21T02:49:02.503Z,97541.13
2018-09-21T02:51:32.716Z,97537.44
2018-09-21T02:54:02.377Z,97541.36
2018-09-21T02:56:32.019Z,97539.81
2018-09-21T02:59:02.267Z,97538.55
2018-09-21T03:01:33.464Z,97533.20
2018-09-21T03:04:02.721Z,97544.97
2018-09-21T03:06:31.835Z,97540.88
2018-09-21T03:09:00.962Z,97540.90
2018-09-21T03:11:30.269Z,97543.70
2018-09-21T03:13:59.303Z,97549.44
2018-09-21T03:16:28.450Z,97548.66
2018-09-21T03:18:57.608Z,97546.77
2018-09-21T03:21:26.984Z,97547.88
2018-09-21T03:23:56.865Z,97541.33
2018-09-21T03:26:26.735Z,97540.58
2018-09-21T03:28:59.393Z,97537.82
2018-09-21T03:31:28.760Z,97527.23
2018-09-21T03:33:58.063Z,97531.31
2018-09-21T03:36:27.273Z,97529.41
2018-09-21T03:38:56.412Z,97527.81
2018-09-21T03:41:25.809Z,97519.48
2018-09-21T03:43:55.078Z,97516.77
2018-09-21T03:46:24.756Z,97516.80
2018-09-21T03:48:54.031Z,97511.37
2018-09-21T03:51:24.104Z,97511.15
2018-09-21T03:53:53.249Z,97513.62
2018-09-21T03:56:22.849Z,97517.41
2018-09-21T03:58:52.172Z,97513.12
2018-09-21T04:01:29.560Z,97515.55
2018-09-21T04:03:58.932Z,97518.02
2018-09-21T04:06:28.761Z,97516.41
2018-09-21T04:08:58.652Z,97519.45
2018-09-21T04:11:29.793Z,97512.65
2018-09-21T04:13:59.494Z,97514.27
2018-09-21T04:16:29.830Z,97520.80
2018-09-21T04:18:59.999Z,97519.95
2018-09-21T04:21:29.313Z,97516.44
2018-09-21T04:24:01.252Z,97511.55
2018-09-21T04:26:31.030Z,97516.98
2018-09-21T04:29:00.342Z,97517.23
2018-09-21T04:31:30.014Z,97521.31
2018-09-21T04:33:59.242Z,97524.31
2018-09-21T04:36:28.357Z,97523.27
2018-09-21T04:38:57.561Z,97527.06
2018-09-21T04:41:26.826Z,97523.55
2018-09-21T04:43:55.921Z,97524.66
2018-09-21T04:46:25.655Z,97520.58
2018-09-21T04:48:54.897Z,97518.45
2018-09-21T04:51:24.669Z,97519.53
2018-09-21T04:53:53.922Z,97514.89
2018-09-21T04:56:23.466Z,97512.70
2018-09-21T04:58:52.576Z,97515.45
2018-09-21T05:01:22.281Z,97515.42
2018-09-21T05:03:51.609Z,97518.05
2018-09-21T05:06:21.239Z,97510.62
2018-09-21T05:08:50.459Z,97508.36
2018-09-21T05:11:19.833Z,97515.44
2018-09-21T05:13:49.050Z,97513.59
2018-09-21T05:16:18.289Z,97513.88
2018-09-21T05:18:47.496Z,97526.92
2018-09-21T05:21:16.803Z,97518.41
2018-09-21T05:23:45.988Z,97527.02
2018-09-21T05:26:15.159Z,97520.38
2018-09-21T05:28:44.309Z,97518.05
2018-09-21T05:31:14.480Z,97526.10
2018-09-21T05:33:43.752Z,97528.08
2018-09-21T05:36:12.904Z,97530.52
2018-09-21T05:38:42.212Z,97531.57
2018-09-21T05:41:11.377Z,97532.45
2018-09-21T05:43:40.519Z,97529.70
2018-09-21T05:46:09.903Z,97533.42
2018-09-21T05:48:39.416Z,97533.23
2018-09-21T05:51:08.786Z,97544.29
2018-09-21T05:53:38.164Z,97546.11
2018-09-21T05:56:07.870Z,97547.37
2018-09-21T05:58:37.211Z,97547.88
2018-09-21T06:01:06.373Z,97541.31
2018-09-21T06:03:35.655Z,97539.45
2018-09-21T06:06:05.033Z,97541.40
2018-09-21T06:08:34.185Z,97542.75
2018-09-21T06:11:03.412Z,97542.44
2018-09-21T06:13:32.689Z,97545.59
2018-09-21T06:16:01.829Z,97545.78
2018-09-21T06:18:31.139Z,97536.25
2018-09-21T06:21:00.423Z,97544.86
2018-09-21T06:23:29.578Z,97541.77
2018-09-21T06:25:58.832Z,97545.06
2018-09-21T06:28:28.072Z,97547.03
2018-09-21T06:30:57.359Z,97544.88
2018-09-21T06:33:26.538Z,97539.61
2018-09-21T06:35:55.780Z,97535.05
2018-09-21T06:38:25.239Z,97540.37
2018-09-21T06:40:54.519Z,97538.17
2018-09-21T06:43:24.277Z,97546.43
2018-09-21T06:45:53.990Z,97545.36
2018-09-21T06:48:23.725Z,97556.30
2018-09-21T06:50:52.924Z,97548.91
2018-09-21T06:53:22.736Z,97550.06
2018-09-21T06:55:51.996Z,97551.40
2018-09-21T06:58:21.193Z,97557.84
2018-09-21T07:00:50.381Z,97551.96
2018-09-21T07:03:19.851Z,97546.97
2018-09-21T07:05:49.028Z,97544.02
2018-09-21T07:08:18.409Z,97551.71
2018-09-21T07:10:47.690Z,97548.39
2018-09-21T07:13:16.900Z,97550.94
2018-09-21T07:15:46.265Z,97551.20
2018-09-21T07:18:15.562Z,97549.45
2018-09-21T07:20:44.811Z,97546.14
2018-09-21T07:23:14.116Z,97547.88
2018-09-21T07:25:43.398Z,97547.52
2018-09-21T07:28:12.576Z,97550.74
2018-09-21T07:30:41.783Z,97549.69
2018-09-21T07:33:11.033Z,97546.49
2018-09-21T07:35:40.239Z,97548.13
2018-09-21T07:38:09.537Z,97552.19
2018-09-21T07:40:38.804Z,97551.59
2018-09-21T07:43:08.094Z,97555.61
2018-09-21T07:45:37.204Z,97558.96
2018-09-21T07:48:06.550Z,97561.00
2018-09-21T07:50:35.809Z,97564.31
2018-09-21T07:53:05.007Z,97557.62
2018-09-21T07:55:34.323Z,97554.89
2018-09-21T07:58:03.554Z,97558.61
2018-09-21T08:00:32.760Z,97557.03
2018-09-21T08:03:01.957Z,97559.39
2018-09-21T08:05:33.710Z,97566.91
2018-09-21T08:08:04.615Z,97573.17
2018-09-21T08:10:33.806Z,97569.50
2018-09-21T08:13:03.102Z,97569.62
2018-09-21T08:15:32.437Z,97569.09
2018-09-21T08:18:01.656Z,97567.31
2018-09-21T08:20:30.817Z,97569.07
2018-09-21T08:23:00.114Z,97572.42
2018-09-21T08:25:29.248Z,97567.34
2018-09-21T08:27:58.360Z,97573.52
2018-09-21T08:30:27.579Z,97570.49
2018-09-21T08:32:56.806Z,97568.59
2018-09-21T08:35:25.998Z,97564.58
2018-09-21T08:37:55.201Z,97565.28
2018-09-21T08:40:24.884Z,97564.58
2018-09-21T08:42:54.077Z,97561.60
2018-09-21T08:45:23.729Z,97567.47
2018-09-21T08:47:52.863Z,97568.02
2018-09-21T08:50:22.426Z,97561.18
2018-09-21T08:52:51.573Z,97568.47
2018-09-21T08:55:20.598Z,97560.66
2018-09-21T08:57:49.615Z,97569.66
2018-09-21T09:00:19.835Z,97570.76
2018-09-21T09:02:49.435Z,97562.66
2018-09-21T09:05:23.597Z,97568.55
2018-09-21T09:07:52.858Z,97565.91
2018-09-21T09:10:22.382Z,97563.28
2018-09-21T09:12:51.503Z,97567.59
2018-09-21T09:15:20.961Z,97575.19
2018-09-21T09:17:50.026Z,97576.06
2018-09-21T09:20:21.100Z,97575.27
2018-09-21T09:22:50.248Z,97572.79
2018-09-21T09:25:20.151Z,97570.67
2018-09-21T09:27:49.133Z,97568.11
2018-09-21T09:30:20.710Z,97568.55
2018-09-21T09:32:49.741Z,97568.47
2018-09-21T09:35:20.557Z,97568.18
2018-09-21T09:37:49.629Z,97564.58
2018-09-21T09:40:20.884Z,97566.06
2018-09-21T09:43:05.352Z,97569.69
2018-09-21T09:45:34.648Z,97567.18
2018-09-21T09:48:03.733Z,97563.88
2018-09-21T09:50:33.619Z,97562.72
2018-09-21T09:53:02.565Z,97568.41
2018-09-21T09:55:31.552Z,97562.29
2018-09-21T09:58:00.552Z,97560.95
2018-09-21T10:00:34.755Z,97559.81
2018-09-21T10:03:03.969Z,97558.14
2018-09-21T10:05:32.973Z,97558.50
2018-09-21T10:08:01.997Z,97557.53
2018-09-21T10:10:30.965Z,97552.94
2018-09-21T10:12:59.987Z,97553.06
2018-09-21T10:15:29.121Z,97554.03
2018-09-21T10:17:58.239Z,97557.66
2018-09-21T10:20:56.890Z,97555.74
2018-09-21T10:23:25.915Z,97553.16
2018-09-21T10:25:54.981Z,97551.72
2018-09-21T10:28:24.601Z,97557.64
2018-09-21T10:30:53.559Z,97557.02
2018-09-21T10:33:29.292Z,97546.80
2018-09-21T10:35:58.280Z,97552.81
2018-09-21T10:38:27.287Z,97561.30
2018-09-21T10:40:56.353Z,97554.73
2018-09-21T10:43:25.850Z,97549.25
2018-09-21T10:45:54.924Z,97546.77
2018-09-21T10:48:24.633Z,97542.80
2018-09-21T10:50:53.769Z,97549.65
2018-09-21T10:53:23.181Z,97539.75
2018-09-21T10:55:52.359Z,97542.56
2018-09-21T10:58:22.057Z,97537.41
2018-09-21T11:00:51.306Z,97530.89
2018-09-21T11:03:20.631Z,97526.02
2018-09-21T11:05:49.782Z,97525.25
2018-09-21T11:08:18.920Z,97521.64
2018-09-21T11:10:48.310Z,97523.19
2018-09-21T11:13:17.470Z,97526.97
2018-09-21T11:15:46.640Z,97521.69
2018-09-21T11:18:15.887Z,97514.82
2018-09-21T11:20:45.263Z,97513.51
2018-09-21T11:23:14.613Z,97516.13
2018-09-21T11:25:43.842Z,97503.48
2018-09-21T11:28:13.057Z,97502.22
2018-09-21T11:30:42.279Z,97497.41
2018-09-21T11:33:11.689Z,97501.87
2018-09-21T11:35:40.814Z,97494.41
2018-09-21T11:38:10.108Z,97492.74
2018-09-21T11:40:39.369Z,97491.00
2018-09-21T11:43:08.605Z,97481.01
2018-09-21T11:45:37.757Z,97483.56
2018-09-21T11:48:07.349Z,97476.42
2018-09-21T11:50:36.545Z,97466.41
2018-09-21T11:53:05.745Z,97474.68
2018-09-21T11:55:34.989Z,97472.34
2018-09-21T11:58:04.154Z,97474.25
2018-09-21T12:00:33.261Z,97473.38
2018-09-21T12:03:02.602Z,97474.44
2018-09-21T12:05:31.785Z,97469.59
2018-09-21T12:08:00.960Z,97470.94
2018-09-21T12:10:30.235Z,97465.75
2018-09-21T12:12:59.468Z,97457.43
2018-09-21T12:15:28.685Z,97461.10
2018-09-21T12:17:57.853Z,97452.89
2018-09-21T12:20:27.003Z,97450.23
2018-09-21T12:22:56.167Z,97453.34
2018-09-21T12:25:25.549Z,97448.07
2018-09-21T12:27:54.777Z,97448.06
2018-09-21T12:30:24.462Z,97453.27
2018-09-21T12:32:53.706Z,97449.13
2018-09-21T12:35:23.226Z,97449.39
2018-09-21T12:37:52.425Z,97447.40
2018-09-21T12:40:21.942Z,97447.77
2018-09-21T12:42:51.448Z,97444.70
2018-09-21T12:45:20.687Z,97447.34
2018-09-21T12:47:49.918Z,97439.71
2018-09-21T12:50:21.946Z,97436.73
2018-09-21T12:52:51.756Z,97438.42
2018-09-21T12:55:21.948Z,97445.31
2018-09-21T12:57:51.500Z,97435.84
2018-09-21T13:00:20.640Z,97427.53
2018-09-21T13:02:49.778Z,97430.78
2018-09-21T13:05:21.130Z,97426.50
2018-09-21T13:07:50.344Z,97418.38
2018-09-21T13:10:20.477Z,97417.52
2018-09-21T13:12:49.622Z,97420.53
2018-09-21T13:15:20.303Z,97427.69
2018-09-21T13:17:49.626Z,97420.55
2018-09-21T13:20:20.477Z,97416.48
2018-09-21T13:22:49.805Z,97421.20
2018-09-21T13:25:19.977Z,97420.17
2018-09-21T13:27:49.127Z,97420.13
2018-09-21T13:30:21.087Z,97422.21
2018-09-21T13:32:50.620Z,97420.57
2018-09-21T13:35:20.682Z,97421.48
2018-09-21T13:37:50.051Z,97419.89
2018-09-21T13:40:20.158Z,97425.19
2018-09-21T13:42:49.415Z,97415.92
2018-09-21T13:45:19.952Z,97422.48
2018-09-21T13:47:49.397Z,97406.81
2018-09-21T13:50:21.295Z,97410.44
2018-09-21T13:52:50.761Z,97410.35
2018-09-21T13:55:19.971Z,97409.64
2018-09-21T13:57:49.177Z,97400.97
2018-09-21T14:00:20.461Z,97405.75
2018-09-21T14:02:49.694Z,97404.33
2018-09-21T14:05:23.286Z,97415.22
2018-09-21T14:08:01.679Z,97411.34
2018-09-21T14:11:13.370Z,97408.02
2018-09-21T14:17:28.256Z,97424.65
2018-09-21T14:19:57.356Z,97429.52
2018-09-21T14:22:26.432Z,97423.16
2018-09-21T14:24:55.522Z,97421.88
2018-09-21T14:27:25.463Z,97426.75
2018-09-21T14:29:54.637Z,97421.88
2018-09-21T14:32:24.853Z,97411.62
2018-09-21T14:34:53.840Z,97412.56
2018-09-21T14:37:23.262Z,97418.77
2018-09-21T14:39:52.381Z,97423.78
2018-09-21T14:42:21.366Z,97417.35
2018-09-21T14:44:56.979Z,97413.00
2018-09-21T14:47:26.056Z,97413.96
2018-09-21T14:49:55.148Z,97412.69
2018-09-21T14:52:24.662Z,97416.05
2018-09-21T14:54:53.677Z,97414.88
2018-09-21T14:57:23.605Z,97419.63
2018-09-21T14:59:52.792Z,97421.82
2018-09-21T15:02:22.644Z,97421.84
2018-09-21T15:04:51.649Z,97421.16
2018-09-21T15:07:20.860Z,97429.78
2018-09-21T15:09:50.021Z,97436.56
2018-09-21T15:12:19.138Z,97431.40
2018-09-21T15:14:48.253Z,97439.33
2018-09-21T15:17:17.331Z,97428.31
2018-09-21T15:19:46.721Z,97432.20
2018-09-21T15:22:16.558Z,97434.84
2018-09-21T15:24:45.640Z,97435.86
2018-09-21T15:27:16.014Z,97428.34
2018-09-21T15:29:45.263Z,97438.81
2018-09-21T15:32:14.987Z,97442.36
2018-09-21T15:34:45.699Z,97442.45
2018-09-21T15:37:15.698Z,97444.30
2018-09-21T15:39:44.781Z,97442.14
2018-09-21T15:42:14.837Z,97438.47
2018-09-21T15:44:44.187Z,97436.75
2018-09-21T15:47:14.444Z,97437.19
2018-09-21T15:49:43.562Z,97443.30
2018-09-21T15:52:12.684Z,97448.22
2018-09-21T15:54:41.916Z,97453.02
2018-09-21T15:57:11.393Z,97456.00
2018-09-21T15:59:40.691Z,97460.47
2018-09-21T16:02:09.801Z,97455.05
2018-09-21T16:04:38.882Z,97459.97
2018-09-21T16:07:08.523Z,97461.56
2018-09-21T16:09:37.530Z,97458.72
2018-09-21T16:12:06.678Z,97454.66
2018-09-21T16:14:36.157Z,97442.82
2018-09-21T16:17:05.196Z,97457.46
2018-09-21T16:19:34.445Z,97465.78
2018-09-21T16:22:03.535Z,97463.34
2018-09-21T16:24:32.581Z,97458.27
2018-09-21T16:27:01.748Z,97456.88
2018-09-21T16:29:30.836Z,97446.63
2018-09-21T16:32:00.364Z,97454.84
2018-09-21T16:34:29.483Z,97448.97
2018-09-21T16:36:58.520Z,97450.08
2018-09-21T16:39:27.523Z,97456.70
2018-09-21T16:41:56.858Z,97456.34
2018-09-21T16:44:26.452Z,97454.80
2018-09-21T16:46:58.440Z,97458.05
2018-09-21T16:49:27.551Z,97467.80
2018-09-21T16:51:56.521Z,97469.09
2018-09-21T16:54:26.128Z,97463.30
2018-09-21T16:56:55.232Z,97466.23
2018-09-21T16:59:24.888Z,97459.07
2018-09-21T17:01:54.103Z,97460.41
2018-09-21T17:04:23.659Z,97457.52
2018-09-21T17:06:52.905Z,97463.09
2018-09-21T17:09:22.853Z,97456.18
2018-09-21T17:11:52.313Z,97455.70
2018-09-21T17:14:22.003Z,97447.71
2018-09-21T17:16:51.817Z,97452.28
2018-09-21T17:19:21.504Z,97448.67
2018-09-21T17:21:52.471Z,97449.45
2018-09-21T17:24:22.222Z,97448.67
2018-09-21T17:26:51.362Z,97444.34
2018-09-21T17:29:20.716Z,97442.67
2018-09-21T17:31:49.964Z,97446.23
2018-09-21T17:34:23.814Z,97440.32
2018-09-21T17:49:52.119Z,97453.30
2018-09-21T17:52:30.927Z,97453.39
2018-09-21T17:55:12.891Z,97452.02
2018-09-21T17:57:42.545Z,97457.13
2018-09-21T18:00:12.226Z,97452.84
2018-09-21T18:02:41.491Z,97463.41
2018-09-21T18:05:10.588Z,97466.41
2018-09-21T18:07:39.742Z,97472.70
2018-09-21T18:10:09.158Z,97479.47
2018-09-21T18:12:44.839Z,97488.03
2018-09-21T18:15:27.558Z,97489.14
2018-09-21T18:18:04.188Z,97498.03
2018-09-21T18:20:35.471Z,97496.59
2018-09-21T18:23:08.964Z,97494.14
2018-09-21T18:25:42.285Z,97496.00
2018-09-21T18:28:17.000Z,97489.62
2018-09-21T18:30:50.689Z,97500.28
2018-09-21T18:33:36.515Z,97504.72
2018-09-21T18:36:13.633Z,97518.27
2018-09-21T18:38:48.653Z,97511.96
2018-09-21T18:41:18.254Z,97519.47
2018-09-21T18:43:53.526Z,97516.73
2018-09-21T18:46:26.795Z,97509.05
2018-09-21T18:48:57.576Z,97519.24
2018-09-21T18:51:33.585Z,97530.28
2018-09-21T18:54:05.723Z,97529.30
2018-09-21T18:56:35.175Z,97536.80
2018-09-21T18:59:04.777Z,97536.48
2018-09-21T19:01:34.266Z,97552.16
2018-09-21T19:04:03.672Z,97549.80
2018-09-21T19:06:33.867Z,97545.27
2018-09-21T19:09:05.565Z,97556.30
2018-09-21T19:11:38.817Z,97546.53
2018-09-21T19:14:09.980Z,97546.59
2018-09-21T19:16:42.513Z,97553.53
2018-09-21T19:19:12.860Z,97550.84
2018-09-21T19:21:42.296Z,97557.23
2018-09-21T19:24:11.953Z,97566.26
2018-09-21T19:26:41.500Z,97560.15
2018-09-21T19:29:13.334Z,97563.03
2018-09-21T19:31:44.079Z,97571.41
2018-09-21T19:34:13.722Z,97573.78
2018-09-21T19:36:45.721Z,97581.31
2018-09-21T19:39:16.219Z,97587.86
2018-09-21T19:41:45.792Z,97581.05
2018-09-21T19:44:16.104Z,97574.28
2018-09-21T19:46:45.893Z,97578.53
2018-09-21T19:49:15.606Z,97580.27
2018-09-21T19:51:45.461Z,97584.80
2018-09-21T19:54:15.877Z,97580.77
2018-09-21T19:56:45.828Z,97585.77
2018-09-21T19:59:15.486Z,97583.39
2018-09-21T20:01:45.295Z,97584.94
2018-09-21T20:04:14.800Z,97593.61
2018-09-21T20:06:44.702Z,97598.52
2018-09-21T20:09:14.572Z,97592.66
2018-09-21T20:11:44.305Z,97597.41
2018-09-21T20:14:15.426Z,97595.48
2018-09-21T20:16:45.101Z,97597.25
2018-09-21T20:19:15.529Z,97604.45
2018-09-21T20:21:45.288Z,97600.47
2018-09-21T20:24:15.032Z,97605.19
2018-09-21T20:26:45.184Z,97617.47
2018-09-21T20:29:15.194Z,97614.03
2018-09-21T20:31:49.945Z,97620.93
2018-09-21T20:34:19.255Z,97602.76
2018-09-21T20:36:48.578Z,97602.00
2018-09-21T20:39:20.676Z,97601.73
2018-09-21T20:41:55.949Z,97605.72
2018-09-21T20:44:29.300Z,97610.24
2018-09-21T20:53:23.929Z,97619.77
2018-09-21T20:56:04.775Z,97621.81
2018-09-21T20:58:41.478Z,97621.98
2018-09-21T21:03:51.583Z,97618.32
2018-09-21T21:06:53.973Z,97621.17
2018-09-21T21:09:49.940Z,97623.35
2018-09-21T21:12:19.880Z,97630.33
2018-09-21T21:14:53.188Z,97628.88
2018-09-21T21:17:34.013Z,97629.03
2018-09-21T21:23:23.793Z,97626.00
2018-09-21T21:25:52.882Z,97626.81
2018-09-21T21:28:23.273Z,97628.86
2018-09-21T21:30:52.491Z,97632.19
2018-09-21T21:35:56.139Z,97628.91
2018-09-21T21:38:25.718Z,97629.70
2018-09-21T21:40:54.837Z,97629.27
2018-09-21T21:43:24.543Z,97630.00
2018-09-21T21:45:53.970Z,97635.05
2018-09-21T21:48:24.011Z,97633.17
2018-09-21T21:50:53.329Z,97631.70
2018-09-21T21:53:22.961Z,97634.94
2018-09-21T21:55:52.274Z,97627.66
2018-09-21T21:58:21.486Z,97627.19
2018-09-21T22:00:55.600Z,97622.98
2018-09-21T22:03:25.410Z,97628.23
2018-09-21T22:05:54.718Z,97636.98
2018-09-21T22:08:24.273Z,97639.56
2018-09-21T22:10:53.556Z,97638.27
2018-09-21T22:13:27.788Z,97640.84
2018-09-21T22:15:57.122Z,97640.35
2018-09-21T22:18:26.564Z,97641.42
2018-09-21T22:20:55.822Z,97644.91
2018-09-21T22:23:25.784Z,97647.40
2018-09-21T22:25:55.172Z,97640.80
2018-09-21T22:28:24.849Z,97636.08
2018-09-21T22:30:54.110Z,97638.21
2018-09-21T22:33:23.581Z,97633.67
2018-09-21T22:35:52.908Z,97631.42
2018-09-21T22:38:22.311Z,97627.28
2018-09-21T22:40:51.529Z,97632.38
2018-09-21T22:43:20.705Z,97632.77
2018-09-21T22:45:50.103Z,97635.70
2018-09-21T22:48:19.501Z,97631.98
2018-09-21T22:50:48.873Z,97629.94
2018-09-21T22:53:18.144Z,97628.47
2018-09-21T22:55:47.325Z,97629.36
2018-09-21T22:58:16.525Z,97629.70
2018-09-21T23:00:45.782Z,97628.64
2018-09-21T23:03:15.528Z,97627.80
2018-09-21T23:05:44.769Z,97637.01
2018-09-21T23:08:14.070Z,97638.34
2018-09-21T23:10:43.327Z,97636.35
2018-09-21T23:13:12.575Z,97634.39
2018-09-21T23:15:41.885Z,97624.22
2018-09-21T23:18:11.212Z,97621.53
2018-09-21T23:20:40.473Z,97623.06
2018-09-21T23:23:09.718Z,97616.37
2018-09-21T23:25:38.894Z,97615.17
2018-09-21T23:28:08.838Z,97611.56
2018-09-21T23:30:38.137Z,97618.39
2018-09-21T23:33:07.502Z,97617.14
2018-09-21T23:35:36.709Z,97617.43
2018-09-21T23:38:06.057Z,97618.84
2018-09-21T23:40:35.269Z,97616.45
2018-09-21T23:43:04.542Z,97618.66
2018-09-21T23:45:34.455Z,97625.21
2018-09-21T23:48:03.707Z,97626.34
2018-09-21T23:50:32.910Z,97631.59
2018-09-21T23:53:02.239Z,97631.90
2018-09-21T23:55:31.471Z,97633.56
2018-09-21T23:58:00.731Z,97630.84
